Time;durP1;ratioP1;P1;durP2;ratioP2;P2;SDS_P1;SDS_P2;PMS_P1;PMS_P2;Temp;Humidity;BMP_temperature;BMP_pressure;BME280_temperature;BME280_humidity;BME280_pressure;Samples;Min_cycle;Max_cycle;Signal;HPM_P1;HPM_P2
2021/03/10 00:01:37;;;;;;;8.15;1.58;;;29.90;53.30;;;;;;5001288;28;20542;-72
2021/03/10 00:04:04;;;;;;;7.75;1.95;;;30.40;52.70;;;;;;4998003;28;20033;-68
2021/03/10 00:06:32;;;;;;;5.10;1.60;;;30.90;51.20;;;;;;5002747;28;20113;-69
2021/03/10 00:08:59;;;;;;;8.23;1.65;;;31.10;50.50;;;;;;5001328;28;20033;-68
2021/03/10 00:11:26;;;;;;;7.65;1.73;;;30.60;51.50;;;;;;5000952;28;20392;-67
2021/03/10 00:13:54;;;;;;;8.38;1.85;;;29.50;52.70;;;;;;5000617;28;20095;-67
2021/03/10 00:16:21;;;;;;;8.00;2.10;;;28.60;55.20;;;;;;5001191;28;20701;-68
2021/03/10 00:18:49;;;;;;;8.27;2.13;;;27.90;57.20;;;;;;5002509;28;20042;-72
2021/03/10 00:21:16;;;;;;;7.75;2.45;;;26.90;58.50;;;;;;5002149;28;20548;-71
2021/03/10 00:23:43;;;;;;;7.85;1.58;;;26.50;61.00;;;;;;4999447;28;20042;-69
2021/03/10 00:26:11;;;;;;;10.45;2.35;;;26.40;61.30;;;;;;5001357;28;20489;-69
2021/03/10 00:28:38;;;;;;;11.25;2.95;;;26.30;61.50;;;;;;5002254;28;20061;-70
2021/03/10 00:31:06;;;;;;;8.20;1.88;;;26.30;61.70;;;;;;5000815;28;20546;-70
2021/03/10 00:33:33;;;;;;;5.50;1.40;;;26.30;62.00;;;;;;4998019;28;20560;-70
2021/03/10 00:36:01;;;;;;;8.85;2.58;;;26.40;61.60;;;;;;5001086;28;20104;-72
2021/03/10 00:38:28;;;;;;;9.85;2.10;;;26.50;61.60;;;;;;5001648;28;20037;-69
2021/03/10 00:40:55;;;;;;;8.02;2.05;;;26.80;61.10;;;;;;5000615;28;20030;-70
2021/03/10 00:43:23;;;;;;;9.27;2.17;;;26.80;60.90;;;;;;4999025;28;20037;-69
2021/03/10 00:45:51;;;;;;;11.05;3.03;;;27.30;60.00;;;;;;5002014;28;20759;-69
2021/03/10 00:48:20;;;;;;;9.75;2.30;;;28.00;58.50;;;;;;5001476;28;20038;-68
2021/03/10 00:50:47;;;;;;;11.88;2.22;;;27.70;58.60;;;;;;5000773;28;20435;-68
2021/03/10 00:53:15;;;;;;;8.10;1.95;;;27.10;59.20;;;;;;4999961;28;20037;-68
2021/03/10 00:55:42;;;;;;;11.35;2.17;;;26.70;59.80;;;;;;4995997;28;20048;-69
2021/03/10 00:58:10;;;;;;;7.97;2.05;;;26.50;60.80;;;;;;5000848;28;20022;-68
2021/03/10 01:00:37;;;;;;;10.70;3.47;;;26.60;60.90;;;;;;4997831;28;20042;-67
2021/03/10 01:03:04;;;;;;;9.63;2.80;;;26.70;60.60;;;;;;5000323;28;20034;-69
2021/03/10 01:05:32;;;;;;;13.35;2.22;;;27.70;58.80;;;;;;4999947;28;20032;-70
2021/03/10 01:07:59;;;;;;;14.48;2.63;;;28.90;56.20;;;;;;5002040;28;20512;-69
2021/03/10 01:10:26;;;;;;;10.93;2.05;;;29.70;55.90;;;;;;4999773;28;20045;-69
2021/03/10 01:12:54;;;;;;;8.50;2.15;;;29.50;52.50;;;;;;4999628;28;20576;-68
2021/03/10 01:15:22;;;;;;;9.43;3.28;;;28.70;54.60;;;;;;5000272;28;20389;-68
2021/03/10 01:17:49;;;;;;;7.72;2.00;;;28.00;56.30;;;;;;5002122;28;20038;-68
2021/03/10 01:20:19;;;;;;;5.85;1.67;;;27.70;57.70;;;;;;5001410;28;20044;-68
2021/03/10 01:22:47;;;;;;;13.18;2.05;;;27.30;58.80;;;;;;4998289;28;20719;-68
2021/03/10 01:25:15;;;;;;;5.80;2.20;;;27.30;59.40;;;;;;4999467;28;20034;-69
2021/03/10 01:27:44;;;;;;;14.75;2.67;;;27.80;58.50;;;;;;5000738;28;20026;-70
2021/03/10 01:30:14;;;;;;;9.88;2.28;;;27.90;58.30;;;;;;5004522;28;20733;-69
2021/03/10 01:32:42;;;;;;;7.43;2.83;;;28.30;56.80;;;;;;5003298;28;20853;-69
2021/03/10 01:35:10;;;;;;;8.48;1.70;;;28.50;55.90;;;;;;5002593;28;20054;-68
2021/03/10 01:37:37;;;;;;;5.55;2.55;;;28.20;56.40;;;;;;5006058;28;20091;-68
2021/03/10 01:40:11;;;;;;;8.88;2.30;;;28.50;56.10;;;;;;5004433;28;20037;-70
2021/03/10 01:42:38;;;;;;;7.05;2.25;;;28.90;55.80;;;;;;5001793;28;20088;-69
2021/03/10 01:45:07;;;;;;;11.65;2.95;;;29.60;55.00;;;;;;5001031;28;20041;-70
2021/03/10 01:47:36;;;;;;;6.93;2.70;;;30.00;52.90;;;;;;5002597;28;20034;-71
2021/03/10 01:50:05;;;;;;;7.00;2.13;;;30.50;51.80;;;;;;5002374;28;20033;-69
2021/03/10 01:52:33;;;;;;;10.13;2.28;;;30.70;50.80;;;;;;5001620;28;20115;-70
2021/03/10 01:55:01;;;;;;;7.88;2.35;;;30.80;51.90;;;;;;5002788;28;20489;-68
2021/03/10 01:57:29;;;;;;;7.85;1.70;;;30.90;50.90;;;;;;5004805;28;20030;-68
2021/03/10 01:59:57;;;;;;;7.50;2.20;;;30.80;51.30;;;;;;5003202;28;20033;-69
2021/03/10 02:02:24;;;;;;;6.00;2.03;;;30.50;51.20;;;;;;5002100;28;20030;-68
2021/03/10 02:04:52;;;;;;;8.35;2.28;;;30.70;50.90;;;;;;5002587;28;20054;-69
2021/03/10 02:07:28;;;;;;;5.88;1.80;;;30.90;51.50;;;;;;5005617;28;20045;-68
2021/03/10 02:10:29;;;;;;;7.10;2.13;;;30.10;51.40;;;;;;5004273;28;20037;-69
2021/03/10 02:13:18;;;;;;;8.02;1.88;;;30.50;51.50;;;;;;5001695;28;20022;-67
2021/03/10 02:16:05;;;;;;;8.32;1.98;;;30.30;50.80;;;;;;5003564;28;20092;-66
2021/03/10 02:19:07;;;;;;;6.50;1.67;;;29.20;52.80;;;;;;5003454;28;20036;-67
2021/03/10 02:21:56;;;;;;;8.98;2.08;;;28.60;54.70;;;;;;4974221;28;20117;-67
2021/03/10 02:24:52;;;;;;;12.30;2.30;;;27.80;56.40;;;;;;5000005;28;20060;-67
2021/03/10 02:28:00;;;;;;;7.80;2.05;;;27.20;57.30;;;;;;4995491;28;20049;-66
2021/03/10 02:30:36;;;;;;;7.88;2.80;;;27.00;58.50;;;;;;4987471;28;20034;-66
2021/03/10 02:33:25;;;;;;;8.25;2.17;;;27.10;59.10;;;;;;4985824;28;20046;-69
2021/03/10 02:35:56;;;;;;;5.75;2.10;;;28.20;56.20;;;;;;4997398;28;20078;-69
2021/03/10 02:38:26;;;;;;;6.90;2.30;;;28.60;54.40;;;;;;5003664;28;20037;-69
2021/03/10 02:40:55;;;;;;;10.05;2.40;;;29.30;53.40;;;;;;5002039;28;20140;-67
2021/03/10 02:43:24;;;;;;;4.85;2.10;;;29.90;51.80;;;;;;4997600;28;20076;-67
2021/03/10 02:45:54;;;;;;;11.60;2.13;;;30.50;50.30;;;;;;5003095;28;20045;-67
2021/03/10 02:48:24;;;;;;;8.02;1.90;;;29.70;51.60;;;;;;5003862;28;20124;-65
2021/03/10 02:50:54;;;;;;;7.57;2.35;;;29.30;53.10;;;;;;5003046;28;20026;-66
2021/03/10 02:53:23;;;;;;;6.15;2.05;;;29.00;54.30;;;;;;5001196;28;20033;-68
2021/03/10 02:55:51;;;;;;;7.85;2.47;;;29.00;53.80;;;;;;5003855;28;20156;-68
2021/03/10 02:58:18;;;;;;;7.10;2.15;;;29.50;54.10;;;;;;5003181;28;20148;-67
2021/03/10 03:00:46;;;;;;;6.43;2.50;;;30.00;52.50;;;;;;4999579;28;20034;-68
2021/03/10 03:03:13;;;;;;;8.32;2.78;;;30.50;51.00;;;;;;5001163;28;20026;-67
2021/03/10 03:05:41;;;;;;;9.65;2.28;;;30.60;49.50;;;;;;5002288;28;20101;-66
2021/03/10 03:08:09;;;;;;;9.32;2.70;;;30.40;51.10;;;;;;5003910;28;20141;-66
2021/03/10 03:10:42;;;;;;;8.98;2.63;;;30.40;50.90;;;;;;5002011;28;20033;-67
2021/03/10 03:13:14;;;;;;;7.18;2.20;;;30.50;51.50;;;;;;4999472;28;20117;-66
2021/03/10 03:15:45;;;;;;;9.52;2.95;;;31.00;49.50;;;;;;5002012;28;20465;-69
2021/03/10 03:18:13;;;;;;;7.32;2.15;;;30.50;51.30;;;;;;5004098;28;21369;-67
2021/03/10 03:20:40;;;;;;;7.30;2.42;;;31.00;51.00;;;;;;5001878;28;20774;-67
2021/03/10 03:23:10;;;;;;;5.60;2.30;;;31.30;49.60;;;;;;5001201;28;20036;-68
2021/03/10 03:25:40;;;;;;;8.93;2.80;;;31.50;48.10;;;;;;4999277;28;20124;-69
2021/03/10 03:28:11;;;;;;;6.75;2.25;;;31.70;47.80;;;;;;5002709;28;20034;-66
2021/03/10 03:30:39;;;;;;;6.95;3.08;;;31.10;48.80;;;;;;4999860;28;20076;-67
2021/03/10 03:33:15;;;;;;;7.90;1.90;;;30.80;49.70;;;;;;5000531;28;20049;-67
2021/03/10 03:35:46;;;;;;;5.43;2.63;;;30.50;50.50;;;;;;5001176;28;20133;-69
2021/03/10 03:38:14;;;;;;;7.05;2.20;;;29.80;52.20;;;;;;5001127;28;20879;-67
2021/03/10 03:40:42;;;;;;;8.57;2.83;;;29.20;52.90;;;;;;5001442;28;20456;-66
2021/03/10 03:43:13;;;;;;;6.57;2.47;;;28.80;53.60;;;;;;5000234;28;20121;-67
2021/03/10 03:45:40;;;;;;;9.55;3.13;;;28.50;54.10;;;;;;4999409;28;20504;-67
2021/03/10 03:48:08;;;;;;;7.47;2.72;;;28.40;55.00;;;;;;5000456;28;20077;-68
2021/03/10 03:50:35;;;;;;;7.43;2.38;;;28.10;54.80;;;;;;5001145;28;20026;-67
2021/03/10 03:53:03;;;;;;;5.78;2.35;;;27.90;55.90;;;;;;5000812;28;20029;-68
2021/03/10 03:55:30;;;;;;;5.93;2.15;;;28.80;55.30;;;;;;4998424;28;20080;-67
2021/03/10 03:57:58;;;;;;;12.32;3.13;;;29.80;53.00;;;;;;5001304;28;20369;-67
2021/03/10 04:00:26;;;;;;;5.80;2.58;;;30.50;50.60;;;;;;4998038;28;20606;-67
2021/03/10 04:02:56;;;;;;;6.70;2.03;;;30.90;49.50;;;;;;5001902;28;20030;-67
2021/03/10 04:05:27;;;;;;;8.45;2.55;;;31.40;49.00;;;;;;5000230;28;20052;-67
2021/03/10 04:07:57;;;;;;;8.88;3.85;;;31.70;47.60;;;;;;5003777;28;20034;-67
2021/03/10 04:10:32;;;;;;;7.38;2.55;;;31.20;48.10;;;;;;4999818;28;20164;-68
2021/03/10 04:13:01;;;;;;;7.13;3.22;;;31.30;48.20;;;;;;4999750;28;20034;-68
2021/03/10 04:15:30;;;;;;;4.15;1.80;;;31.60;48.30;;;;;;5000167;28;20049;-70
2021/03/10 04:17:58;;;;;;;5.47;2.25;;;31.60;47.60;;;;;;5001349;28;20045;-68
2021/03/10 04:20:26;;;;;;;7.68;2.10;;;31.40;47.40;;;;;;5001562;28;20037;-68
2021/03/10 04:22:53;;;;;;;11.32;2.88;;;31.60;48.30;;;;;;5001504;28;20075;-67
2021/03/10 04:25:21;;;;;;;7.13;2.00;;;31.50;47.80;;;;;;4998415;28;20042;-68
2021/03/10 04:27:49;;;;;;;6.78;2.00;;;31.50;48.10;;;;;;5001749;28;20045;-67
2021/03/10 04:30:17;;;;;;;7.45;1.98;;;31.30;48.50;;;;;;5001459;28;20029;-67
2021/03/10 04:32:44;;;;;;;9.55;3.38;;;31.20;49.80;;;;;;5000256;28;20305;-68
2021/03/10 04:35:12;;;;;;;7.30;2.92;;;31.00;50.00;;;;;;4997083;28;20065;-69
2021/03/10 04:37:40;;;;;;;5.88;2.00;;;30.90;50.50;;;;;;5000580;28;20030;-68
2021/03/10 04:40:09;;;;;;;5.65;2.25;;;30.30;50.60;;;;;;5003071;28;20112;-68
2021/03/10 04:42:37;;;;;;;7.07;2.10;;;29.50;52.80;;;;;;4998602;28;20034;-68
2021/03/10 04:45:07;;;;;;;10.05;2.20;;;28.80;54.50;;;;;;5000444;28;20050;-67
2021/03/10 04:47:35;;;;;;;10.63;2.10;;;28.40;55.50;;;;;;5002456;28;20069;-68
2021/03/10 04:50:04;;;;;;;7.07;2.30;;;28.30;56.40;;;;;;5001562;28;20121;-67
2021/03/10 04:52:32;;;;;;;4.97;2.03;;;29.00;55.20;;;;;;4999864;28;20028;-69
2021/03/10 04:54:59;;;;;;;7.50;2.70;;;29.50;54.00;;;;;;4999950;28;20093;-67
2021/03/10 04:57:27;;;;;;;7.97;2.55;;;29.40;53.70;;;;;;5002449;28;20427;-69
2021/03/10 04:59:54;;;;;;;7.78;2.20;;;28.70;55.20;;;;;;5001086;28;20048;-68
2021/03/10 05:02:22;;;;;;;9.18;2.65;;;28.30;56.50;;;;;;4998841;28;20696;-67
2021/03/10 05:04:49;;;;;;;12.50;3.05;;;28.00;57.20;;;;;;5000414;28;20128;-67
2021/03/10 05:07:16;;;;;;;11.90;2.88;;;27.80;57.80;;;;;;5000465;28;20022;-69
2021/03/10 05:09:44;;;;;;;9.10;2.28;;;27.70;58.30;;;;;;5000716;28;20022;-68
2021/03/10 05:12:11;;;;;;;5.82;2.58;;;28.00;58.20;;;;;;5000875;28;20123;-69
2021/03/10 05:14:39;;;;;;;6.97;1.90;;;28.10;57.10;;;;;;4997549;28;20137;-68
2021/03/10 05:17:07;;;;;;;9.95;2.40;;;28.20;57.20;;;;;;5001490;28;20796;-67
2021/03/10 05:19:34;;;;;;;10.60;2.53;;;28.10;57.00;;;;;;5000880;28;20033;-70
2021/03/10 05:22:02;;;;;;;8.00;2.47;;;28.10;57.70;;;;;;4999571;28;20029;-70
2021/03/10 05:24:29;;;;;;;11.85;2.92;;;28.00;57.60;;;;;;4997373;28;20108;-72
2021/03/10 05:26:56;;;;;;;6.43;2.20;;;27.80;58.30;;;;;;4999897;28;20026;-70
2021/03/10 05:29:24;;;;;;;6.63;1.77;;;27.70;59.10;;;;;;5000647;28;20034;-69
2021/03/10 05:31:51;;;;;;;9.02;2.97;;;27.50;58.40;;;;;;5000625;28;20045;-68
2021/03/10 05:34:19;;;;;;;14.82;2.97;;;27.50;59.20;;;;;;4997619;28;20112;-68
2021/03/10 05:36:46;;;;;;;8.02;2.60;;;27.40;59.50;;;;;;5001326;28;20580;-67
2021/03/10 05:39:14;;;;;;;9.75;2.10;;;27.40;59.70;;;;;;5000091;28;20042;-67
2021/03/10 05:41:43;;;;;;;9.52;2.20;;;27.20;59.70;;;;;;5000502;28;20443;-70
2021/03/10 05:44:14;;;;;;;6.95;2.50;;;27.20;60.00;;;;;;4997961;28;20162;-67
2021/03/10 05:46:42;;;;;;;10.88;2.42;;;27.10;60.20;;;;;;5000872;28;20035;-67
2021/03/10 05:49:10;;;;;;;6.90;1.77;;;27.00;60.30;;;;;;5001271;28;20045;-68
2021/03/10 05:51:37;;;;;;;10.30;2.67;;;26.90;60.60;;;;;;4999850;28;20048;-67
2021/03/10 05:54:06;;;;;;;11.85;2.22;;;26.80;61.20;;;;;;4997033;28;20038;-69
2021/03/10 05:56:34;;;;;;;11.75;2.83;;;26.70;61.70;;;;;;5000851;28;20601;-68
2021/03/10 05:59:03;;;;;;;13.02;3.38;;;26.50;61.60;;;;;;5001260;28;20026;-66
2021/03/10 06:01:31;;;;;;;10.48;3.13;;;26.30;61.90;;;;;;5000257;28;20056;-71
2021/03/10 06:04:03;;;;;;;8.20;2.40;;;26.20;62.30;;;;;;4997338;28;20034;-68
2021/03/10 06:06:39;;;;;;;11.25;2.70;;;26.10;62.70;;;;;;5001854;28;20034;-69
2021/03/10 06:09:21;;;;;;;12.60;3.33;;;26.10;62.90;;;;;;4997293;28;20236;-70
2021/03/10 06:12:02;;;;;;;8.68;2.78;;;26.10;62.90;;;;;;4998354;28;20076;-68
2021/03/10 06:14:30;;;;;;;9.57;2.45;;;26.10;62.90;;;;;;4990812;28;20049;-70
2021/03/10 06:17:11;;;;;;;8.25;2.65;;;26.10;63.10;;;;;;4995790;28;20435;-67
2021/03/10 06:19:49;;;;;;;7.28;3.08;;;25.90;62.90;;;;;;4998487;28;20030;-69
2021/03/10 06:22:20;;;;;;;7.18;2.20;;;25.90;63.40;;;;;;4998031;28;20038;-69
2021/03/10 06:24:59;;;;;;;7.95;2.47;;;25.80;63.50;;;;;;4999529;28;20026;-69
2021/03/10 06:27:27;;;;;;;7.82;2.47;;;25.80;63.40;;;;;;5004447;28;20018;-70
2021/03/10 06:29:59;;;;;;;8.18;2.53;;;25.60;63.80;;;;;;5004066;28;20041;-68
2021/03/10 06:32:27;;;;;;;7.32;2.78;;;25.60;64.10;;;;;;5002160;28;20448;-69
2021/03/10 06:34:55;;;;;;;11.13;2.50;;;25.70;63.90;;;;;;5002541;28;20038;-71
2021/03/10 06:37:32;;;;;;;6.18;2.40;;;25.70;63.80;;;;;;5004728;28;20037;-69
2021/03/10 06:40:11;;;;;;;15.43;2.55;;;25.60;63.80;;;;;;5003382;28;20030;-69
2021/03/10 06:42:39;;;;;;;10.70;2.80;;;25.40;63.90;;;;;;5001936;28;20464;-71
2021/03/10 06:45:08;;;;;;;8.07;2.85;;;25.40;64.20;;;;;;5001482;28;20058;-67
2021/03/10 06:47:40;;;;;;;10.73;2.63;;;25.30;64.70;;;;;;5003904;28;20518;-69
2021/03/10 06:50:11;;;;;;;15.35;2.78;;;25.00;65.40;;;;;;5004693;28;20156;-68
2021/03/10 06:52:38;;;;;;;10.65;2.97;;;24.90;65.80;;;;;;5002302;28;20029;-68
2021/03/10 06:55:07;;;;;;;10.50;2.97;;;25.00;65.40;;;;;;5002241;28;20374;-69
2021/03/10 06:57:44;;;;;;;10.85;3.42;;;25.00;65.50;;;;;;5004146;28;20121;-70
2021/03/10 07:00:24;;;;;;;11.63;3.65;;;25.00;65.80;;;;;;5004740;28;20898;-70
2021/03/10 07:02:52;;;;;;;10.98;2.13;;;24.90;66.00;;;;;;5000523;28;20030;-69
2021/03/10 07:05:20;;;;;;;11.35;2.45;;;25.00;65.80;;;;;;5002238;28;20030;-71
2021/03/10 07:07:49;;;;;;;11.65;3.92;;;25.00;65.70;;;;;;5002498;28;20511;-69
2021/03/10 07:10:17;;;;;;;11.05;2.75;;;25.00;65.50;;;;;;5004180;28;20052;-68
2021/03/10 07:12:45;;;;;;;11.07;2.95;;;24.90;65.70;;;;;;5000429;28;20724;-68
2021/03/10 07:15:15;;;;;;;10.35;3.03;;;24.90;65.80;;;;;;5000611;28;20567;-68
2021/03/10 07:17:43;;;;;;;13.63;2.78;;;24.70;66.10;;;;;;5002143;28;20690;-66
2021/03/10 07:20:11;;;;;;;11.82;3.10;;;24.60;66.80;;;;;;5002903;28;20083;-67
2021/03/10 07:23:07;;;;;;;11.57;2.88;;;24.50;67.00;;;;;;5001339;28;20022;-69
2021/03/10 07:25:41;;;;;;;15.20;2.65;;;24.40;67.50;;;;;;4995488;28;20113;-70
2021/03/10 07:28:21;;;;;;;16.45;2.83;;;24.40;68.00;;;;;;5002256;28;20176;-71
2021/03/10 07:30:49;;;;;;;9.50;2.42;;;24.30;67.70;;;;;;5001389;28;20060;-69
2021/03/10 07:33:23;;;;;;;5.57;2.05;;;24.20;68.10;;;;;;5001601;28;20029;-68
2021/03/10 07:35:51;;;;;;;9.52;2.22;;;24.00;68.60;;;;;;5001139;28;20053;-69
2021/03/10 07:38:20;;;;;;;8.07;2.60;;;24.00;68.70;;;;;;5003533;28;20030;-68
2021/03/10 07:41:08;;;;;;;15.13;2.40;;;24.10;68.60;;;;;;5000379;28;20058;-67
2021/03/10 07:43:43;;;;;;;9.13;2.00;;;24.00;68.70;;;;;;4998921;28;20037;-68
2021/03/10 07:46:28;;;;;;;9.10;2.72;;;24.10;68.60;;;;;;5004574;28;20022;-68
2021/03/10 07:48:57;;;;;;;13.10;2.95;;;24.20;68.10;;;;;;5001520;28;20028;-70
2021/03/10 07:51:36;;;;;;;8.57;2.03;;;24.10;68.50;;;;;;5001417;28;20045;-70
2021/03/10 07:54:21;;;;;;;10.55;2.25;;;24.00;68.70;;;;;;4999630;28;20496;-69
2021/03/10 07:56:48;;;;;;;10.88;2.30;;;24.10;68.50;;;;;;5002442;28;20021;-68
2021/03/10 07:59:17;;;;;;;17.77;2.88;;;24.10;68.50;;;;;;5003088;28;20392;-70
2021/03/10 08:01:46;;;;;;;12.13;2.95;;;24.00;68.80;;;;;;5002718;28;20113;-69
2021/03/10 08:04:18;;;;;;;14.55;4.07;;;24.00;69.00;;;;;;4999020;28;20053;-68
2021/03/10 08:06:49;;;;;;;9.48;3.90;;;23.90;69.00;;;;;;5003212;28;20047;-69
2021/03/10 08:09:18;;;;;;;14.05;4.35;;;23.90;69.10;;;;;;5003673;28;20037;-71
2021/03/10 08:11:48;;;;;;;10.18;3.40;;;23.80;69.30;;;;;;5000767;28;20037;-68
2021/03/10 08:14:17;;;;;;;12.00;3.63;;;23.70;70.00;;;;;;4998292;28;20038;-67
2021/03/10 08:16:50;;;;;;;11.32;3.60;;;23.60;70.40;;;;;;4999758;28;20034;-68
2021/03/10 08:19:22;;;;;;;11.20;2.78;;;23.60;70.50;;;;;;5002057;28;20018;-68
2021/03/10 08:21:52;;;;;;;9.75;3.30;;;23.40;71.10;;;;;;4999803;28;20034;-67
2021/03/10 08:24:21;;;;;;;8.63;2.75;;;23.40;71.30;;;;;;4999599;28;20045;-69
2021/03/10 08:26:54;;;;;;;11.30;3.25;;;23.40;71.50;;;;;;5002657;28;20030;-67
2021/03/10 08:29:22;;;;;;;20.50;6.88;;;23.30;71.90;;;;;;5002110;28;20104;-69
2021/03/10 08:31:57;;;;;;;17.67;6.95;;;23.30;71.80;;;;;;5002002;28;20065;-68
2021/03/10 08:34:33;;;;;;;13.27;3.10;;;23.40;71.90;;;;;;4997509;28;20404;-67
2021/03/10 08:37:03;;;;;;;11.02;2.80;;;23.30;71.80;;;;;;5001959;28;20061;-69
2021/03/10 08:39:30;;;;;;;8.35;2.22;;;23.30;71.90;;;;;;5002358;28;20040;-67
2021/03/10 08:41:58;;;;;;;13.73;2.67;;;23.30;72.00;;;;;;4999499;28;20030;-68
2021/03/10 08:44:27;;;;;;;11.35;3.05;;;23.10;72.20;;;;;;4998617;28;20125;-70
2021/03/10 08:46:56;;;;;;;11.32;3.22;;;23.10;72.40;;;;;;5002028;28;20044;-67
2021/03/10 08:49:31;;;;;;;16.88;3.92;;;23.20;72.40;;;;;;5001165;28;20109;-68
2021/03/10 08:52:13;;;;;;;12.93;3.30;;;23.30;72.00;;;;;;5001196;28;20087;-70
2021/03/10 08:55:00;;;;;;;8.05;2.55;;;23.30;71.70;;;;;;4999352;28;20053;-68
2021/03/10 08:57:31;;;;;;;7.30;2.60;;;23.30;71.70;;;;;;5002217;28;20107;-68
2021/03/10 08:59:59;;;;;;;9.02;2.97;;;23.40;71.60;;;;;;5002317;28;20061;-69
2021/03/10 09:02:31;;;;;;;9.52;1.98;;;23.40;71.30;;;;;;4999319;28;20120;-68
2021/03/10 09:05:01;;;;;;;10.57;3.25;;;23.40;71.70;;;;;;4997567;28;20026;-69
2021/03/10 09:07:29;;;;;;;8.27;2.03;;;23.50;71.50;;;;;;5001708;28;20064;-70
2021/03/10 09:10:07;;;;;;;21.63;3.65;;;23.50;71.70;;;;;;5001499;28;20028;-69
2021/03/10 09:12:39;;;;;;;8.20;2.75;;;23.40;71.80;;;;;;4999797;28;20034;-68
2021/03/10 09:15:18;;;;;;;12.40;2.88;;;23.30;72.10;;;;;;4999242;28;20071;-69
2021/03/10 09:17:45;;;;;;;7.88;2.78;;;23.20;72.30;;;;;;5001791;28;20026;-69
2021/03/10 09:20:31;;;;;;;10.73;2.80;;;23.30;72.40;;;;;;5002770;28;20106;-68
2021/03/10 09:23:00;;;;;;;9.10;2.40;;;23.20;72.50;;;;;;5000043;28;20492;-70
2021/03/10 09:25:33;;;;;;;8.50;2.17;;;23.20;72.30;;;;;;4999790;28;20057;-67
2021/03/10 09:28:12;;;;;;;10.05;3.00;;;23.20;72.60;;;;;;5001761;28;20403;-68
2021/03/10 09:30:41;;;;;;;11.75;2.80;;;23.20;72.60;;;;;;5001985;28;21085;-69
2021/03/10 09:33:20;;;;;;;6.18;2.05;;;23.10;72.90;;;;;;5001243;28;20026;-69
2021/03/10 09:36:07;;;;;;;7.97;2.10;;;23.10;73.00;;;;;;5001510;28;20038;-72
2021/03/10 09:38:34;;;;;;;12.48;3.20;;;23.20;72.90;;;;;;5001682;28;20030;-68
2021/03/10 09:41:04;;;;;;;9.13;3.70;;;23.10;72.80;;;;;;4999747;28;20061;-69
2021/03/10 09:43:33;;;;;;;6.78;2.35;;;23.10;73.20;;;;;;5001037;28;20033;-71
2021/03/10 09:46:05;;;;;;;8.88;2.08;;;23.10;73.10;;;;;;5000727;28;20041;-69
2021/03/10 09:48:40;;;;;;;8.10;2.03;;;23.00;73.40;;;;;;5001367;28;20041;-69
2021/03/10 09:51:15;;;;;;;8.77;2.92;;;23.00;73.70;;;;;;5003914;28;20047;-69
2021/03/10 09:53:45;;;;;;;7.82;2.30;;;23.00;73.50;;;;;;5004763;28;20089;-71
2021/03/10 09:56:15;;;;;;;8.63;2.70;;;23.10;73.50;;;;;;5004538;28;20045;-70
2021/03/10 09:58:54;;;;;;;8.48;2.28;;;22.90;73.80;;;;;;5005372;28;20558;-71
2021/03/10 10:01:25;;;;;;;11.00;2.80;;;22.90;74.20;;;;;;5003348;28;20036;-68
2021/03/10 10:03:54;;;;;;;8.63;2.88;;;22.90;74.10;;;;;;5004071;28;20022;-70
2021/03/10 10:06:22;;;;;;;7.38;2.60;;;22.90;74.00;;;;;;5002374;28;20026;-69
2021/03/10 10:08:51;;;;;;;6.22;2.72;;;22.90;74.10;;;;;;5005239;28;20029;-68
2021/03/10 10:11:19;;;;;;;16.30;3.95;;;22.90;73.90;;;;;;5004963;28;20132;-71
2021/03/10 10:13:48;;;;;;;12.98;2.97;;;22.90;74.10;;;;;;5002891;28;20477;-69
2021/03/10 10:16:16;;;;;;;8.25;2.67;;;22.90;74.20;;;;;;5001691;28;20452;-70
2021/03/10 10:18:49;;;;;;;11.52;2.50;;;23.00;74.00;;;;;;5002811;28;20036;-71
2021/03/10 10:21:18;;;;;;;6.35;2.80;;;22.90;74.10;;;;;;5002593;28;20056;-70
2021/03/10 10:23:47;;;;;;;6.78;2.88;;;22.80;74.50;;;;;;5002725;28;20033;-68
2021/03/10 10:26:14;;;;;;;9.80;3.13;;;22.80;74.40;;;;;;5002472;28;20038;-70
2021/03/10 10:28:42;;;;;;;10.63;3.20;;;22.80;74.60;;;;;;5002866;28;20060;-69
2021/03/10 10:31:09;;;;;;;9.55;2.47;;;22.80;74.30;;;;;;5002391;28;20053;-68
2021/03/10 10:33:36;;;;;;;7.15;2.30;;;22.80;74.50;;;;;;5002995;28;20033;-68
2021/03/10 10:36:04;;;;;;;10.88;3.35;;;22.80;74.60;;;;;;5003097;28;20033;-68
2021/03/10 10:38:31;;;;;;;8.23;2.55;;;22.70;74.70;;;;;;5004379;28;20034;-68
2021/03/10 10:40:59;;;;;;;11.88;3.22;;;22.70;74.80;;;;;;5002556;28;20018;-68
2021/03/10 10:43:29;;;;;;;9.70;2.40;;;22.80;74.90;;;;;;5002458;28;20056;-68
2021/03/10 10:45:56;;;;;;;7.60;3.33;;;22.70;74.90;;;;;;5001694;28;20508;-71
2021/03/10 10:48:24;;;;;;;7.40;2.38;;;22.80;74.50;;;;;;5003806;28;20092;-71
2021/03/10 10:50:51;;;;;;;6.28;2.70;;;22.80;74.50;;;;;;5002813;28;20114;-68
2021/03/10 10:53:19;;;;;;;7.05;2.10;;;22.70;74.80;;;;;;5001951;28;20040;-68
2021/03/10 10:55:46;;;;;;;8.88;2.42;;;22.80;75.00;;;;;;5002984;28;20057;-68
2021/03/10 10:58:14;;;;;;;8.05;2.30;;;22.90;74.40;;;;;;5018874;28;20037;-69
2021/03/10 11:00:41;;;;;;;6.32;2.72;;;22.90;74.00;;;;;;5003027;28;20843;-69
2021/03/10 11:03:09;;;;;;;7.35;2.42;;;23.00;73.80;;;;;;5003405;28;20111;-67
2021/03/10 11:05:36;;;;;;;9.27;2.42;;;22.90;73.90;;;;;;5001625;28;20532;-67
2021/03/10 11:08:04;;;;;;;7.28;2.45;;;22.90;74.30;;;;;;5004772;28;20030;-68
2021/03/10 11:10:31;;;;;;;8.38;2.72;;;22.90;74.10;;;;;;5002460;28;20022;-69
2021/03/10 11:12:58;;;;;;;6.97;2.40;;;22.90;74.20;;;;;;5002474;28;20026;-69
2021/03/10 11:15:26;;;;;;;8.68;2.72;;;23.00;73.80;;;;;;5002911;28;20038;-69
2021/03/10 11:17:54;;;;;;;6.75;2.50;;;23.00;73.70;;;;;;5004020;28;20025;-68
2021/03/10 11:20:22;;;;;;;7.25;3.25;;;22.90;73.80;;;;;;5003346;28;20026;-68
2021/03/10 11:22:49;;;;;;;7.57;3.72;;;22.80;74.10;;;;;;5001870;28;20033;-67
2021/03/10 11:25:18;;;;;;;6.53;2.40;;;22.70;74.40;;;;;;5002134;28;20044;-67
2021/03/10 11:27:46;;;;;;;7.82;2.53;;;22.70;74.70;;;;;;5001089;28;21001;-68
2021/03/10 11:30:14;;;;;;;10.20;3.22;;;22.60;74.80;;;;;;5002270;28;20037;-71
2021/03/10 11:32:41;;;;;;;10.95;2.50;;;22.60;75.00;;;;;;5000708;28;20030;-69
2021/03/10 11:35:10;;;;;;;8.13;2.70;;;22.60;75.00;;;;;;5001272;28;20092;-69
2021/03/10 11:37:37;;;;;;;6.55;2.65;;;22.60;74.90;;;;;;4972247;28;20122;-71
2021/03/10 11:40:07;;;;;;;4.88;2.47;;;22.60;75.20;;;;;;4995542;28;20096;-68
2021/03/10 11:42:35;;;;;;;8.73;2.58;;;22.60;74.90;;;;;;4996827;28;20172;-69
2021/03/10 11:45:03;;;;;;;7.05;2.90;;;22.70;74.40;;;;;;4998576;28;20050;-68
2021/03/10 11:47:31;;;;;;;8.15;3.83;;;22.70;74.40;;;;;;5002211;28;20495;-68
2021/03/10 11:49:58;;;;;;;8.98;2.65;;;22.70;74.20;;;;;;5001113;28;20400;-69
2021/03/10 11:52:26;;;;;;;7.07;2.97;;;22.60;74.50;;;;;;4998694;28;20041;-69
2021/03/10 11:54:53;;;;;;;5.95;3.13;;;22.60;74.90;;;;;;4996737;28;20042;-68
2021/03/10 11:57:20;;;;;;;6.78;2.30;;;22.50;75.30;;;;;;5001845;28;20494;-67
2021/03/10 11:59:48;;;;;;;13.55;3.10;;;22.40;75.80;;;;;;5000731;28;20128;-68
2021/03/10 12:02:15;;;;;;;9.00;3.30;;;22.40;75.70;;;;;;5000093;28;20167;-68
2021/03/10 12:04:43;;;;;;;10.30;2.63;;;22.50;75.60;;;;;;5001209;28;20145;-67
2021/03/10 12:07:10;;;;;;;9.00;3.10;;;22.50;75.30;;;;;;5001832;28;20056;-67
2021/03/10 12:09:38;;;;;;;10.30;3.13;;;22.60;75.00;;;;;;5001513;28;20044;-68
2021/03/10 12:12:06;;;;;;;10.95;3.85;;;22.60;74.80;;;;;;5000488;28;20026;-69
2021/03/10 12:14:34;;;;;;;8.25;3.30;;;22.60;75.30;;;;;;4999197;28;20049;-69
2021/03/10 12:17:01;;;;;;;7.95;3.08;;;22.50;75.40;;;;;;5000416;28;20030;-68
2021/03/10 12:19:28;;;;;;;17.05;7.43;;;22.60;75.50;;;;;;5001156;28;20026;-69
2021/03/10 12:21:56;;;;;;;6.80;3.13;;;22.50;75.80;;;;;;4998069;28;20015;-67
2021/03/10 12:24:23;;;;;;;30.30;10.50;;;22.50;75.90;;;;;;4997552;28;20088;-69
2021/03/10 12:26:51;;;;;;;26.55;9.30;;;22.50;76.00;;;;;;5001757;28;20165;-69
2021/03/10 12:29:18;;;;;;;12.45;4.38;;;22.50;75.90;;;;;;5002103;28;20038;-69
2021/03/10 12:31:45;;;;;;;7.45;3.60;;;22.50;75.70;;;;;;4999286;28;21353;-68
2021/03/10 12:34:13;;;;;;;9.25;3.33;;;22.50;75.90;;;;;;5002095;28;20040;-66
2021/03/10 12:36:41;;;;;;;8.85;3.17;;;22.50;75.60;;;;;;4998965;28;20042;-67
2021/03/10 12:39:08;;;;;;;11.32;3.65;;;22.50;76.10;;;;;;5000283;28;20107;-67
2021/03/10 12:41:36;;;;;;;10.38;3.33;;;22.40;76.20;;;;;;4997800;28;20489;-68
2021/03/10 12:44:03;;;;;;;8.25;3.22;;;22.40;76.20;;;;;;4999291;28;20073;-68
2021/03/10 12:46:31;;;;;;;8.30;2.85;;;22.30;76.50;;;;;;5000039;28;20021;-67
2021/03/10 12:49:00;;;;;;;7.38;3.08;;;22.30;76.70;;;;;;5001449;28;20021;-67
2021/03/10 12:51:27;;;;;;;7.85;3.95;;;22.30;76.60;;;;;;5000335;28;20029;-67
2021/03/10 12:53:55;;;;;;;9.10;3.83;;;22.30;77.00;;;;;;5000470;28;20037;-68
2021/03/10 12:56:22;;;;;;;9.18;2.88;;;22.30;76.90;;;;;;4999547;28;20046;-67
2021/03/10 12:58:50;;;;;;;10.50;3.28;;;22.30;76.90;;;;;;5002221;28;20041;-67